Albuquerque, NM

5:57 AM MDT on July 28, 2016 (GMT -0600)
Montecito Estates | | Change Station

Elev 5384 ft 35.16 °N, 106.73 °W | Updated 5 seconds ago

Partly Cloudy
Partly Cloudy
66.0 °F
Feels Like 66.0 °F
N
1.1
Wind Variable Wind from NNW
Gusts 2.5 mph

Today
High -- | Low -- °F
--% Chance of Precip.
Yesterday
High -- | Low -- °F
Precip. -- in
Pressure 29.96 in
Visibility 10.0 miles
Clouds Few 11000 ft
Dew Point 54 °F
Humidity 65%
Rainfall 0.00 in
Snow Depth Not available.
6:13 AM 8:13 PM
Waning Crescent, 33% visible
METAR KABQ 281152Z 36006KT 10SM FEW110 22/11 A3024 RMK AO2 SLP143 T02170111 10261 20217 53004
Pressure 29.96 in
Visibility 10.0 miles
Clouds Few 11000 ft
Dew Point 54 °F
Humidity 65%
Rainfall 0.00 in
Snow Depth Not available.
6:13 AM 8:13 PM
Waning Crescent, 33% visible
METAR KABQ 281152Z 36006KT 10SM FEW110 22/11 A3024 RMK AO2 SLP143 T02170111 10261 20217 53004

10-Day Weather Forecast

Almanac

Astronomy

Jul. 28, 2016 Rise Set
Actual Time
Civil Twilight
Nautical Twilight
Astronomical Twilight
Moon
Length of Visible Light
Length of Day
Tomorrow will be .
, % of the Moon is Illuminated

Today's Extremes

State Highs State Lows

Community

WunderPhotos

Upload Photos

1,928,096 photos uploaded!

WunderBlog® & News

Nearby

Air Quality

  Air Quality AQ Index Pollutant
Not available.

Snow Depth

Station Depth Elevation

Earthquake Activity

City Distance Mag. Time & Date
Minimum magnitude displayed is 2.5.

Coastal Water Temperatures

Place Temperature

Stations

Nearby Weather Stations

Station Location Temp. Windchill Dew Point Humidity Wind Precip. Elev Updated Type
                   

Watches & Warnings

There are currently no watches in effect.